sensor_id;sensor_type;location;lat;lon;timestamp;temperature;humidity
12166;DHT22;6146;48.128;11.476;2023-02-28T00:01:21;-1.90;99.90
12166;DHT22;6146;48.128;11.476;2023-02-28T00:03:47;-1.90;99.90
12166;DHT22;6146;48.128;11.476;2023-02-28T00:06:12;-1.90;99.90
12166;DHT22;6146;48.128;11.476;2023-02-28T00:08:39;-2.00;99.90
12166;DHT22;6146;48.128;11.476;2023-02-28T00:11:12;-2.00;99.90
12166;DHT22;6146;48.128;11.476;2023-02-28T00:13:40;-2.00;99.90
12166;DHT22;6146;48.128;11.476;2023-02-28T00:16:11;-2.00;99.90
12166;DHT22;6146;48.128;11.476;2023-02-28T00:18:38;-2.00;99.90
12166;DHT22;6146;48.128;11.476;2023-02-28T00:21:05;-2.10;99.90
12166;DHT22;6146;48.128;11.476;2023-02-28T00:23:30;-2.00;99.90
12166;DHT22;6146;48.128;11.476;2023-02-28T00:25:56;-2.00;99.90
12166;DHT22;6146;48.128;11.476;2023-02-28T00:28:22;-2.00;99.90
12166;DHT22;6146;48.128;11.476;2023-02-28T00:30:48;-2.10;99.90
12166;DHT22;6146;48.128;11.476;2023-02-28T00:33:13;-2.10;99.90
12166;DHT22;6146;48.128;11.476;2023-02-28T00:35:39;-2.10;99.90
12166;DHT22;6146;48.128;11.476;2023-02-28T00:38:05;-2.10;99.90
12166;DHT22;6146;48.128;11.476;2023-02-28T00:40:30;-2.10;99.90
12166;DHT22;6146;48.128;11.476;2023-02-28T00:42:56;-2.10;99.90
12166;DHT22;6146;48.128;11.476;2023-02-28T00:45:22;-2.10;99.90
12166;DHT22;6146;48.128;11.476;2023-02-28T00:47:47;-2.20;99.90
12166;DHT22;6146;48.128;11.476;2023-02-28T00:50:17;-2.20;99.90
12166;DHT22;6146;48.128;11.476;2023-02-28T00:52:42;-2.20;99.90
12166;DHT22;6146;48.128;11.476;2023-02-28T00:55:08;-2.20;99.90
12166;DHT22;6146;48.128;11.476;2023-02-28T00:57:34;-2.20;99.90
12166;DHT22;6146;48.128;11.476;2023-02-28T00:59:59;-2.20;99.90
12166;DHT22;6146;48.128;11.476;2023-02-28T01:02:25;-2.30;99.90
12166;DHT22;6146;48.128;11.476;2023-02-28T01:04:50;-2.20;99.90
12166;DHT22;6146;48.128;11.476;2023-02-28T01:07:16;-2.30;99.90
12166;DHT22;6146;48.128;11.476;2023-02-28T01:09:41;-2.30;99.90
12166;DHT22;6146;48.128;11.476;2023-02-28T01:12:08;-2.30;99.90
12166;DHT22;6146;48.128;11.476;2023-02-28T01:14:34;-2.30;99.90
12166;DHT22;6146;48.128;11.476;2023-02-28T01:17:00;-2.30;99.90
12166;DHT22;6146;48.128;11.476;2023-02-28T01:19:25;-2.30;99.90
12166;DHT22;6146;48.128;11.476;2023-02-28T01:21:51;-2.40;99.90
12166;DHT22;6146;48.128;11.476;2023-02-28T01:24:17;-2.40;99.90
12166;DHT22;6146;48.128;11.476;2023-02-28T01:26:42;-2.40;99.90
12166;DHT22;6146;48.128;11.476;2023-02-28T01:29:08;-2.40;99.90
12166;DHT22;6146;48.128;11.476;2023-02-28T01:31:33;-2.40;99.90
12166;DHT22;6146;48.128;11.476;2023-02-28T01:33:59;-2.40;99.90
12166;DHT22;6146;48.128;11.476;2023-02-28T01:36:25;-2.40;99.90
12166;DHT22;6146;48.128;11.476;2023-02-28T01:38:51;-2.50;99.90
12166;DHT22;6146;48.128;11.476;2023-02-28T01:41:20;-2.50;99.90
12166;DHT22;6146;48.128;11.476;2023-02-28T01:46:12;-2.40;99.90
12166;DHT22;6146;48.128;11.476;2023-02-28T01:48:48;-2.50;99.90
12166;DHT22;6146;48.128;11.476;2023-02-28T01:51:21;-2.50;99.90
12166;DHT22;6146;48.128;11.476;2023-02-28T01:53:52;-2.50;99.90
12166;DHT22;6146;48.128;11.476;2023-02-28T01:56:24;-2.50;99.90
12166;DHT22;6146;48.128;11.476;2023-02-28T01:58:51;-2.50;99.90
12166;DHT22;6146;48.128;11.476;2023-02-28T02:01:18;-2.50;99.90
12166;DHT22;6146;48.128;11.476;2023-02-28T02:03:53;-2.60;99.90
12166;DHT22;6146;48.128;11.476;2023-02-28T02:06:27;-2.60;99.90
12166;DHT22;6146;48.128;11.476;2023-02-28T02:08:54;-2.60;99.90
12166;DHT22;6146;48.128;11.476;2023-02-28T02:11:21;-2.60;99.90
12166;DHT22;6146;48.128;11.476;2023-02-28T02:19:59;-2.60;99.90
12166;DHT22;6146;48.128;11.476;2023-02-28T02:25:32;-2.70;99.90
12166;DHT22;6146;48.128;11.476;2023-02-28T02:28:29;-2.70;99.90
12166;DHT22;6146;48.128;11.476;2023-02-28T02:31:18;-2.70;99.90
12166;DHT22;6146;48.128;11.476;2023-02-28T02:36:39;-2.70;99.90
12166;DHT22;6146;48.128;11.476;2023-02-28T02:39:17;-2.80;99.90
12166;DHT22;6146;48.128;11.476;2023-02-28T02:41:51;-2.70;99.90
12166;DHT22;6146;48.128;11.476;2023-02-28T02:47:17;-2.80;99.90
12166;DHT22;6146;48.128;11.476;2023-02-28T02:49:49;-2.80;99.90
12166;DHT22;6146;48.128;11.476;2023-02-28T02:52:20;-2.80;99.90
12166;DHT22;6146;48.128;11.476;2023-02-28T02:54:48;-2.80;99.90
12166;DHT22;6146;48.128;11.476;2023-02-28T02:57:29;-2.80;99.90
12166;DHT22;6146;48.128;11.476;2023-02-28T02:59:56;-2.80;99.90
12166;DHT22;6146;48.128;11.476;2023-02-28T03:02:23;-2.80;99.90
12166;DHT22;6146;48.128;11.476;2023-02-28T03:04:52;-2.80;99.90
12166;DHT22;6146;48.128;11.476;2023-02-28T03:07:19;-2.80;99.90
12166;DHT22;6146;48.128;11.476;2023-02-28T03:09:52;-2.80;99.90
12166;DHT22;6146;48.128;11.476;2023-02-28T03:12:18;-2.80;99.90
12166;DHT22;6146;48.128;11.476;2023-02-28T03:20:46;-2.90;99.90
12166;DHT22;6146;48.128;11.476;2023-02-28T03:23:17;-2.90;99.90
12166;DHT22;6146;48.128;11.476;2023-02-28T03:25:56;-2.90;99.90
12166;DHT22;6146;48.128;11.476;2023-02-28T03:34:29;-2.90;99.90
12166;DHT22;6146;48.128;11.476;2023-02-28T03:36:59;-2.90;99.90
12166;DHT22;6146;48.128;11.476;2023-02-28T03:39:33;-2.90;99.90
12166;DHT22;6146;48.128;11.476;2023-02-28T03:42:05;-3.00;99.90
12166;DHT22;6146;48.128;11.476;2023-02-28T03:44:51;-3.00;99.90
12166;DHT22;6146;48.128;11.476;2023-02-28T03:50:42;-2.90;99.90
12166;DHT22;6146;48.128;11.476;2023-02-28T03:53:20;-2.90;99.90
12166;DHT22;6146;48.128;11.476;2023-02-28T03:55:51;-2.90;99.90
12166;DHT22;6146;48.128;11.476;2023-02-28T03:58:32;-2.90;99.90
12166;DHT22;6146;48.128;11.476;2023-02-28T04:01:15;-2.90;99.90
12166;DHT22;6146;48.128;11.476;2023-02-28T04:03:42;-2.90;99.90
12166;DHT22;6146;48.128;11.476;2023-02-28T04:06:22;-2.90;99.90
12166;DHT22;6146;48.128;11.476;2023-02-28T04:08:48;-2.90;99.90
12166;DHT22;6146;48.128;11.476;2023-02-28T04:13:48;-2.90;99.90
12166;DHT22;6146;48.128;11.476;2023-02-28T04:16:14;-2.80;99.90
12166;DHT22;6146;48.128;11.476;2023-02-28T04:18:39;-2.80;99.90
12166;DHT22;6146;48.128;11.476;2023-02-28T04:21:06;-2.80;99.90
12166;DHT22;6146;48.128;11.476;2023-02-28T04:23:32;-2.70;99.90
12166;DHT22;6146;48.128;11.476;2023-02-28T04:25:58;-2.60;99.90
12166;DHT22;6146;48.128;11.476;2023-02-28T04:28:23;-2.50;99.90
12166;DHT22;6146;48.128;11.476;2023-02-28T04:30:57;-2.50;99.90
12166;DHT22;6146;48.128;11.476;2023-02-28T04:33:22;-2.50;99.90
12166;DHT22;6146;48.128;11.476;2023-02-28T04:35:48;-2.40;99.90
12166;DHT22;6146;48.128;11.476;2023-02-28T04:38:13;-2.40;99.90
12166;DHT22;6146;48.128;11.476;2023-02-28T04:40:39;-2.40;99.90
12166;DHT22;6146;48.128;11.476;2023-02-28T04:43:05;-2.40;99.90
12166;DHT22;6146;48.128;11.476;2023-02-28T04:45:30;-2.40;99.90
12166;DHT22;6146;48.128;11.476;2023-02-28T04:47:57;-2.40;99.90
12166;DHT22;6146;48.128;11.476;2023-02-28T04:50:23;-2.40;99.90
12166;DHT22;6146;48.128;11.476;2023-02-28T04:52:49;-2.40;99.90
12166;DHT22;6146;48.128;11.476;2023-02-28T04:55:14;-2.30;99.90
12166;DHT22;6146;48.128;11.476;2023-02-28T04:57:40;-2.30;99.90
12166;DHT22;6146;48.128;11.476;2023-02-28T05:00:09;-2.30;99.90
12166;DHT22;6146;48.128;11.476;2023-02-28T05:02:37;-2.30;99.90
12166;DHT22;6146;48.128;11.476;2023-02-28T05:05:03;-2.20;99.90
12166;DHT22;6146;48.128;11.476;2023-02-28T05:07:29;-2.20;99.90
12166;DHT22;6146;48.128;11.476;2023-02-28T05:09:55;-2.20;99.90
12166;DHT22;6146;48.128;11.476;2023-02-28T05:12:20;-2.20;99.90
12166;DHT22;6146;48.128;11.476;2023-02-28T05:14:46;-2.20;99.90
12166;DHT22;6146;48.128;11.476;2023-02-28T05:17:11;-2.10;99.90
12166;DHT22;6146;48.128;11.476;2023-02-28T05:19:37;-2.10;99.90
12166;DHT22;6146;48.128;11.476;2023-02-28T05:22:03;-2.20;99.90
12166;DHT22;6146;48.128;11.476;2023-02-28T05:24:29;-2.20;99.90
12166;DHT22;6146;48.128;11.476;2023-02-28T05:26:55;-2.20;99.90
12166;DHT22;6146;48.128;11.476;2023-02-28T05:29:21;-2.20;99.90
12166;DHT22;6146;48.128;11.476;2023-02-28T05:31:47;-2.20;99.90
12166;DHT22;6146;48.128;11.476;2023-02-28T05:34:12;-2.10;99.90
12166;DHT22;6146;48.128;11.476;2023-02-28T05:36:38;-2.10;99.90
12166;DHT22;6146;48.128;11.476;2023-02-28T05:39:07;-1.80;99.90
12166;DHT22;6146;48.128;11.476;2023-02-28T05:41:38;-2.10;99.90
12166;DHT22;6146;48.128;11.476;2023-02-28T05:44:04;-2.00;99.90
12166;DHT22;6146;48.128;11.476;2023-02-28T05:46:29;-2.10;99.90
12166;DHT22;6146;48.128;11.476;2023-02-28T05:48:55;-2.10;99.90
12166;DHT22;6146;48.128;11.476;2023-02-28T05:51:23;-2.20;99.90
12166;DHT22;6146;48.128;11.476;2023-02-28T05:53:48;-2.10;99.90
12166;DHT22;6146;48.128;11.476;2023-02-28T05:56:14;-2.10;99.90
12166;DHT22;6146;48.128;11.476;2023-02-28T05:58:40;-2.00;99.90
12166;DHT22;6146;48.128;11.476;2023-02-28T06:01:30;-2.00;99.90
12166;DHT22;6146;48.128;11.476;2023-02-28T06:03:56;-2.00;99.90
12166;DHT22;6146;48.128;11.476;2023-02-28T06:06:21;-2.00;99.90
12166;DHT22;6146;48.128;11.476;2023-02-28T06:08:47;-2.00;99.90
12166;DHT22;6146;48.128;11.476;2023-02-28T06:11:13;-2.00;99.90
12166;DHT22;6146;48.128;11.476;2023-02-28T06:13:39;-2.00;99.90
12166;DHT22;6146;48.128;11.476;2023-02-28T06:16:05;-1.90;99.90
12166;DHT22;6146;48.128;11.476;2023-02-28T06:18:30;-1.90;99.90
12166;DHT22;6146;48.128;11.476;2023-02-28T06:20:56;-1.80;99.90
12166;DHT22;6146;48.128;11.476;2023-02-28T06:23:22;-1.80;99.90
12166;DHT22;6146;48.128;11.476;2023-02-28T06:25:47;-1.80;99.90
12166;DHT22;6146;48.128;11.476;2023-02-28T06:28:14;-1.90;99.90
12166;DHT22;6146;48.128;11.476;2023-02-28T06:30:40;-1.90;99.90
12166;DHT22;6146;48.128;11.476;2023-02-28T06:33:05;-2.00;99.90
12166;DHT22;6146;48.128;11.476;2023-02-28T06:35:31;-1.90;99.90
12166;DHT22;6146;48.128;11.476;2023-02-28T06:37:57;-1.90;99.90
12166;DHT22;6146;48.128;11.476;2023-02-28T06:40:23;-1.90;99.90
12166;DHT22;6146;48.128;11.476;2023-02-28T06:42:48;-1.90;99.90
12166;DHT22;6146;48.128;11.476;2023-02-28T06:45:14;-1.80;99.90
12166;DHT22;6146;48.128;11.476;2023-02-28T06:47:41;-1.80;99.90
12166;DHT22;6146;48.128;11.476;2023-02-28T06:50:11;-1.70;99.90
12166;DHT22;6146;48.128;11.476;2023-02-28T06:52:36;-1.70;99.90
12166;DHT22;6146;48.128;11.476;2023-02-28T06:55:04;-1.70;99.90
12166;DHT22;6146;48.128;11.476;2023-02-28T06:57:30;-1.70;99.90
12166;DHT22;6146;48.128;11.476;2023-02-28T07:00:00;-1.90;99.90
12166;DHT22;6146;48.128;11.476;2023-02-28T07:02:27;-2.00;99.90
12166;DHT22;6146;48.128;11.476;2023-02-28T07:04:52;-2.00;99.90
12166;DHT22;6146;48.128;11.476;2023-02-28T07:07:18;-2.00;99.90
12166;DHT22;6146;48.128;11.476;2023-02-28T07:09:43;-2.00;99.90
12166;DHT22;6146;48.128;11.476;2023-02-28T07:12:09;-1.90;99.90
12166;DHT22;6146;48.128;11.476;2023-02-28T07:14:36;-1.90;99.90
12166;DHT22;6146;48.128;11.476;2023-02-28T07:17:02;-1.80;99.90
12166;DHT22;6146;48.128;11.476;2023-02-28T07:19:28;-1.80;99.90
12166;DHT22;6146;48.128;11.476;2023-02-28T07:21:54;-1.90;99.90
12166;DHT22;6146;48.128;11.476;2023-02-28T07:24:19;-1.90;99.90
12166;DHT22;6146;48.128;11.476;2023-02-28T07:26:45;-1.80;99.90
12166;DHT22;6146;48.128;11.476;2023-02-28T07:29:10;-1.80;99.90
12166;DHT22;6146;48.128;11.476;2023-02-28T07:31:36;-1.70;99.90
12166;DHT22;6146;48.128;11.476;2023-02-28T07:34:01;-1.50;99.90
12166;DHT22;6146;48.128;11.476;2023-02-28T07:36:28;-1.40;99.90
12166;DHT22;6146;48.128;11.476;2023-02-28T07:38:54;-1.30;99.90
12166;DHT22;6146;48.128;11.476;2023-02-28T07:41:21;-1.20;99.90
12166;DHT22;6146;48.128;11.476;2023-02-28T07:43:48;-1.20;99.90
12166;DHT22;6146;48.128;11.476;2023-02-28T07:46:16;-1.30;99.90
12166;DHT22;6146;48.128;11.476;2023-02-28T07:48:42;-1.40;99.90
12166;DHT22;6146;48.128;11.476;2023-02-28T07:51:07;-1.50;99.90
12166;DHT22;6146;48.128;11.476;2023-02-28T07:53:33;-1.50;99.90
12166;DHT22;6146;48.128;11.476;2023-02-28T07:56:00;-1.50;99.90
12166;DHT22;6146;48.128;11.476;2023-02-28T07:58:27;-1.50;99.90
12166;DHT22;6146;48.128;11.476;2023-02-28T08:00:54;-1.50;99.90
12166;DHT22;6146;48.128;11.476;2023-02-28T08:03:21;-1.40;99.90
12166;DHT22;6146;48.128;11.476;2023-02-28T08:05:47;-1.40;99.90
12166;DHT22;6146;48.128;11.476;2023-02-28T08:08:13;-1.50;99.90
12166;DHT22;6146;48.128;11.476;2023-02-28T08:10:39;-1.50;99.90
12166;DHT22;6146;48.128;11.476;2023-02-28T08:13:04;-1.60;99.90
12166;DHT22;6146;48.128;11.476;2023-02-28T08:15:30;-1.40;99.90
12166;DHT22;6146;48.128;11.476;2023-02-28T08:17:56;-1.30;99.90
12166;DHT22;6146;48.128;11.476;2023-02-28T08:20:23;-1.20;99.90
12166;DHT22;6146;48.128;11.476;2023-02-28T08:22:48;-1.10;99.90
12166;DHT22;6146;48.128;11.476;2023-02-28T08:25:14;-1.40;99.90
12166;DHT22;6146;48.128;11.476;2023-02-28T08:27:40;-1.40;99.90
12166;DHT22;6146;48.128;11.476;2023-02-28T08:30:06;-1.30;99.90
12166;DHT22;6146;48.128;11.476;2023-02-28T08:32:33;-1.20;99.90
12166;DHT22;6146;48.128;11.476;2023-02-28T08:34:59;-1.10;99.90
12166;DHT22;6146;48.128;11.476;2023-02-28T08:37:24;-1.00;99.90
12166;DHT22;6146;48.128;11.476;2023-02-28T08:39:50;-1.00;99.90
12166;DHT22;6146;48.128;11.476;2023-02-28T08:42:16;-1.20;99.90
12166;DHT22;6146;48.128;11.476;2023-02-28T08:44:41;-1.30;99.90
12166;DHT22;6146;48.128;11.476;2023-02-28T08:47:07;-1.20;99.90
12166;DHT22;6146;48.128;11.476;2023-02-28T08:49:33;-1.10;99.90
12166;DHT22;6146;48.128;11.476;2023-02-28T08:51:59;-1.10;99.90
12166;DHT22;6146;48.128;11.476;2023-02-28T08:54:24;-1.00;99.90
12166;DHT22;6146;48.128;11.476;2023-02-28T08:56:50;-1.00;99.90
12166;DHT22;6146;48.128;11.476;2023-02-28T08:59:16;-1.00;99.90
12166;DHT22;6146;48.128;11.476;2023-02-28T09:01:42;-1.00;99.90
12166;DHT22;6146;48.128;11.476;2023-02-28T09:04:09;-1.00;99.90
12166;DHT22;6146;48.128;11.476;2023-02-28T09:06:36;-0.90;99.90
12166;DHT22;6146;48.128;11.476;2023-02-28T09:09:02;-0.80;99.90
12166;DHT22;6146;48.128;11.476;2023-02-28T09:11:29;-0.70;99.90
12166;DHT22;6146;48.128;11.476;2023-02-28T09:13:55;-0.60;99.90
12166;DHT22;6146;48.128;11.476;2023-02-28T09:16:21;-0.90;99.90
12166;DHT22;6146;48.128;11.476;2023-02-28T09:18:47;-0.80;99.90
12166;DHT22;6146;48.128;11.476;2023-02-28T09:21:15;-0.90;99.90
12166;DHT22;6146;48.128;11.476;2023-02-28T09:23:42;-0.70;99.90
12166;DHT22;6146;48.128;11.476;2023-02-28T09:26:16;-0.60;99.90
12166;DHT22;6146;48.128;11.476;2023-02-28T09:28:42;-0.30;99.90
12166;DHT22;6146;48.128;11.476;2023-02-28T09:31:13;-0.30;99.90
12166;DHT22;6146;48.128;11.476;2023-02-28T09:33:38;-0.20;99.90
12166;DHT22;6146;48.128;11.476;2023-02-28T09:36:04;0.00;99.90
12166;DHT22;6146;48.128;11.476;2023-02-28T09:38:30;0.40;99.90
12166;DHT22;6146;48.128;11.476;2023-02-28T09:41:02;0.50;99.90
12166;DHT22;6146;48.128;11.476;2023-02-28T09:43:41;0.80;99.90
12166;DHT22;6146;48.128;11.476;2023-02-28T09:47:00;0.30;99.90
12166;DHT22;6146;48.128;11.476;2023-02-28T09:49:07;0.10;99.90
12166;DHT22;6146;48.128;11.476;2023-02-28T09:52:04;0.30;99.90
12166;DHT22;6146;48.128;11.476;2023-02-28T09:54:34;0.30;99.90
12166;DHT22;6146;48.128;11.476;2023-02-28T09:57:21;0.40;99.90
12166;DHT22;6146;48.128;11.476;2023-02-28T09:59:57;0.30;99.90
12166;DHT22;6146;48.128;11.476;2023-02-28T10:05:48;0.20;99.90
12166;DHT22;6146;48.128;11.476;2023-02-28T10:08:19;-0.10;99.90
12166;DHT22;6146;48.128;11.476;2023-02-28T10:10:55;-0.30;99.90
12166;DHT22;6146;48.128;11.476;2023-02-28T10:16:41;0.20;99.90
12166;DHT22;6146;48.128;11.476;2023-02-28T10:19:25;-0.10;99.90
12166;DHT22;6146;48.128;11.476;2023-02-28T10:24:45;-0.40;99.90
12166;DHT22;6146;48.128;11.476;2023-02-28T10:27:21;-0.40;99.90
12166;DHT22;6146;48.128;11.476;2023-02-28T10:29:50;-0.40;99.90
12166;DHT22;6146;48.128;11.476;2023-02-28T10:32:18;-0.20;99.90
12166;DHT22;6146;48.128;11.476;2023-02-28T10:34:57;0.10;99.90
12166;DHT22;6146;48.128;11.476;2023-02-28T10:37:23;0.20;99.90
12166;DHT22;6146;48.128;11.476;2023-02-28T10:39:49;0.50;99.90
12166;DHT22;6146;48.128;11.476;2023-02-28T10:42:40;0.40;99.90
12166;DHT22;6146;48.128;11.476;2023-02-28T10:45:15;0.80;99.90
12166;DHT22;6146;48.128;11.476;2023-02-28T10:48:00;0.70;99.90
12166;DHT22;6146;48.128;11.476;2023-02-28T10:50:42;0.60;99.90
12166;DHT22;6146;48.128;11.476;2023-02-28T11:01:41;1.20;99.90
12166;DHT22;6146;48.128;11.476;2023-02-28T11:07:20;2.10;99.90
12166;DHT22;6146;48.128;11.476;2023-02-28T11:09:49;2.30;99.90
12166;DHT22;6146;48.128;11.476;2023-02-28T11:12:39;2.40;99.90
12166;DHT22;6146;48.128;11.476;2023-02-28T11:15:25;3.00;99.90
12166;DHT22;6146;48.128;11.476;2023-02-28T11:18:00;3.00;99.90
12166;DHT22;6146;48.128;11.476;2023-02-28T11:20:29;2.50;99.90
12166;DHT22;6146;48.128;11.476;2023-02-28T11:22:56;2.90;99.90
12166;DHT22;6146;48.128;11.476;2023-02-28T11:25:31;1.90;99.90
12166;DHT22;6146;48.128;11.476;2023-02-28T11:27:59;1.10;99.90
12166;DHT22;6146;48.128;11.476;2023-02-28T11:30:38;0.90;99.90
12166;DHT22;6146;48.128;11.476;2023-02-28T11:33:30;1.60;99.90
12166;DHT22;6146;48.128;11.476;2023-02-28T11:36:03;2.50;99.90
12166;DHT22;6146;48.128;11.476;2023-02-28T11:38:31;3.50;99.90
12166;DHT22;6146;48.128;11.476;2023-02-28T11:44:27;3.30;99.90
12166;DHT22;6146;48.128;11.476;2023-02-28T11:47:07;3.60;99.90
12166;DHT22;6146;48.128;11.476;2023-02-28T11:49:37;3.30;99.90
12166;DHT22;6146;48.128;11.476;2023-02-28T11:52:21;3.20;99.90
12166;DHT22;6146;48.128;11.476;2023-02-28T11:55:01;3.90;99.90
12166;DHT22;6146;48.128;11.476;2023-02-28T12:03:12;6.70;99.90
12166;DHT22;6146;48.128;11.476;2023-02-28T12:08:31;7.50;99.30
12166;DHT22;6146;48.128;11.476;2023-02-28T12:13:56;6.80;97.20
12166;DHT22;6146;48.128;11.476;2023-02-28T12:16:41;7.10;97.40
12166;DHT22;6146;48.128;11.476;2023-02-28T12:20:05;8.00;96.40
12166;DHT22;6146;48.128;11.476;2023-02-28T12:22:26;7.20;95.40
12166;DHT22;6146;48.128;11.476;2023-02-28T12:27:34;5.70;99.10
12166;DHT22;6146;48.128;11.476;2023-02-28T12:30:06;5.10;99.90
12166;DHT22;6146;48.128;11.476;2023-02-28T12:32:45;5.70;99.70
12166;DHT22;6146;48.128;11.476;2023-02-28T12:35:19;6.10;98.40
12166;DHT22;6146;48.128;11.476;2023-02-28T12:37:52;6.50;98.10
12166;DHT22;6146;48.128;11.476;2023-02-28T12:40:29;7.10;95.80
12166;DHT22;6146;48.128;11.476;2023-02-28T12:43:03;7.90;95.60
12166;DHT22;6146;48.128;11.476;2023-02-28T12:45:55;7.60;94.90
12166;DHT22;6146;48.128;11.476;2023-02-28T12:48:47;8.10;94.60
12166;DHT22;6146;48.128;11.476;2023-02-28T12:51:12;7.30;94.70
12166;DHT22;6146;48.128;11.476;2023-02-28T12:56:47;7.90;94.70
12166;DHT22;6146;48.128;11.476;2023-02-28T12:59:27;8.20;93.10
12166;DHT22;6146;48.128;11.476;2023-02-28T13:02:02;8.90;92.60
12166;DHT22;6146;48.128;11.476;2023-02-28T13:07:45;8.50;91.50
12166;DHT22;6146;48.128;11.476;2023-02-28T13:10:15;8.60;91.90
12166;DHT22;6146;48.128;11.476;2023-02-28T13:12:52;9.40;91.10
12166;DHT22;6146;48.128;11.476;2023-02-28T13:15:25;9.30;90.00
12166;DHT22;6146;48.128;11.476;2023-02-28T13:17:56;8.40;90.40
12166;DHT22;6146;48.128;11.476;2023-02-28T13:20:34;7.30;92.80
12166;DHT22;6146;48.128;11.476;2023-02-28T13:22:59;6.60;93.70
12166;DHT22;6146;48.128;11.476;2023-02-28T13:25:50;6.40;95.00
12166;DHT22;6146;48.128;11.476;2023-02-28T13:31:14;7.60;93.70
12166;DHT22;6146;48.128;11.476;2023-02-28T13:38:53;8.00;92.20
12166;DHT22;6146;48.128;11.476;2023-02-28T13:44:09;7.50;92.30
12166;DHT22;6146;48.128;11.476;2023-02-28T13:52:10;8.10;91.60
12166;DHT22;6146;48.128;11.476;2023-02-28T13:58:23;6.70;93.80
12166;DHT22;6146;48.128;11.476;2023-02-28T14:01:16;5.50;96.40
12166;DHT22;6146;48.128;11.476;2023-02-28T14:11:37;4.50;98.40
12166;DHT22;6146;48.128;11.476;2023-02-28T14:14:04;4.60;99.30
12166;DHT22;6146;48.128;11.476;2023-02-28T14:16:40;4.80;98.90
12166;DHT22;6146;48.128;11.476;2023-02-28T14:19:25;4.90;99.30
12166;DHT22;6146;48.128;11.476;2023-02-28T14:28:38;4.40;99.90
12166;DHT22;6146;48.128;11.476;2023-02-28T14:36:42;4.90;99.80
12166;DHT22;6146;48.128;11.476;2023-02-28T14:41:39;4.40;99.10
12166;DHT22;6146;48.128;11.476;2023-02-28T14:44:20;4.40;99.90
12166;DHT22;6146;48.128;11.476;2023-02-28T14:46:58;4.40;99.90
12166;DHT22;6146;48.128;11.476;2023-02-28T14:49:26;4.50;99.90
12166;DHT22;6146;48.128;11.476;2023-02-28T14:52:15;4.70;99.90
12166;DHT22;6146;48.128;11.476;2023-02-28T14:54:43;4.90;99.80
12166;DHT22;6146;48.128;11.476;2023-02-28T14:57:26;4.90;99.80
12166;DHT22;6146;48.128;11.476;2023-02-28T15:00:20;4.80;99.50
12166;DHT22;6146;48.128;11.476;2023-02-28T15:02:46;4.80;99.60
12166;DHT22;6146;48.128;11.476;2023-02-28T15:07:38;4.60;99.90
12166;DHT22;6146;48.128;11.476;2023-02-28T15:10:23;4.40;99.90
12166;DHT22;6146;48.128;11.476;2023-02-28T15:12:51;3.80;99.90
12166;DHT22;6146;48.128;11.476;2023-02-28T15:15:19;3.60;99.90
12166;DHT22;6146;48.128;11.476;2023-02-28T15:17:49;3.70;99.90
12166;DHT22;6146;48.128;11.476;2023-02-28T15:20:16;3.70;99.90
12166;DHT22;6146;48.128;11.476;2023-02-28T15:22:42;3.50;99.90
12166;DHT22;6146;48.128;11.476;2023-02-28T15:25:12;3.50;99.90
12166;DHT22;6146;48.128;11.476;2023-02-28T15:27:44;3.70;99.90
12166;DHT22;6146;48.128;11.476;2023-02-28T15:30:24;3.70;99.90
12166;DHT22;6146;48.128;11.476;2023-02-28T15:35:37;3.50;99.90
12166;DHT22;6146;48.128;11.476;2023-02-28T15:38:23;3.50;99.90
12166;DHT22;6146;48.128;11.476;2023-02-28T15:40:54;3.40;99.90
12166;DHT22;6146;48.128;11.476;2023-02-28T15:43:28;3.40;99.90
12166;DHT22;6146;48.128;11.476;2023-02-28T15:46:01;3.40;99.90
12166;DHT22;6146;48.128;11.476;2023-02-28T15:48:43;3.30;99.90
12166;DHT22;6146;48.128;11.476;2023-02-28T15:51:20;3.40;99.90
12166;DHT22;6146;48.128;11.476;2023-02-28T15:53:50;3.50;99.90
12166;DHT22;6146;48.128;11.476;2023-02-28T15:56:34;3.50;99.90
12166;DHT22;6146;48.128;11.476;2023-02-28T15:59:06;3.40;99.90
12166;DHT22;6146;48.128;11.476;2023-02-28T16:01:34;3.30;99.90
12166;DHT22;6146;48.128;11.476;2023-02-28T16:04:15;3.30;99.90
12166;DHT22;6146;48.128;11.476;2023-02-28T16:06:45;3.40;99.90
12166;DHT22;6146;48.128;11.476;2023-02-28T16:09:14;3.30;99.90
12166;DHT22;6146;48.128;11.476;2023-02-28T16:11:45;3.20;99.90
12166;DHT22;6146;48.128;11.476;2023-02-28T16:14:16;3.20;99.90
12166;DHT22;6146;48.128;11.476;2023-02-28T16:16:47;3.20;99.90
12166;DHT22;6146;48.128;11.476;2023-02-28T16:19:14;3.20;99.90
12166;DHT22;6146;48.128;11.476;2023-02-28T16:21:39;3.20;99.90
12166;DHT22;6146;48.128;11.476;2023-02-28T16:24:05;3.30;99.90
12166;DHT22;6146;48.128;11.476;2023-02-28T16:26:31;3.20;99.90
12166;DHT22;6146;48.128;11.476;2023-02-28T16:29:00;3.00;99.90
12166;DHT22;6146;48.128;11.476;2023-02-28T16:31:26;3.00;99.90
12166;DHT22;6146;48.128;11.476;2023-02-28T16:33:51;3.00;99.90
12166;DHT22;6146;48.128;11.476;2023-02-28T16:36:20;2.90;99.90
12166;DHT22;6146;48.128;11.476;2023-02-28T16:38:45;2.90;99.90
12166;DHT22;6146;48.128;11.476;2023-02-28T16:41:18;2.90;99.90
12166;DHT22;6146;48.128;11.476;2023-02-28T16:43:49;2.90;99.90
12166;DHT22;6146;48.128;11.476;2023-02-28T16:46:16;2.80;99.90
12166;DHT22;6146;48.128;11.476;2023-02-28T16:48:42;2.80;99.90
12166;DHT22;6146;48.128;11.476;2023-02-28T16:51:12;2.80;99.90
12166;DHT22;6146;48.128;11.476;2023-02-28T16:53:38;2.80;99.90
12166;DHT22;6146;48.128;11.476;2023-02-28T16:56:03;2.80;99.90
12166;DHT22;6146;48.128;11.476;2023-02-28T16:58:32;2.80;99.90
12166;DHT22;6146;48.128;11.476;2023-02-28T17:01:01;2.70;99.90
12166;DHT22;6146;48.128;11.476;2023-02-28T17:03:28;2.80;99.90
12166;DHT22;6146;48.128;11.476;2023-02-28T17:05:54;2.80;99.90
12166;DHT22;6146;48.128;11.476;2023-02-28T17:08:19;2.80;99.90
12166;DHT22;6146;48.128;11.476;2023-02-28T17:10:45;2.80;99.90
12166;DHT22;6146;48.128;11.476;2023-02-28T17:13:11;2.80;99.90
12166;DHT22;6146;48.128;11.476;2023-02-28T17:15:37;2.70;99.90
12166;DHT22;6146;48.128;11.476;2023-02-28T17:18:03;2.70;99.90
12166;DHT22;6146;48.128;11.476;2023-02-28T17:20:29;2.60;99.90
12166;DHT22;6146;48.128;11.476;2023-02-28T17:22:55;2.60;99.90
12166;DHT22;6146;48.128;11.476;2023-02-28T17:25:22;2.60;99.90
12166;DHT22;6146;48.128;11.476;2023-02-28T17:27:48;2.50;99.90
12166;DHT22;6146;48.128;11.476;2023-02-28T17:30:20;2.50;99.90
12166;DHT22;6146;48.128;11.476;2023-02-28T17:32:46;2.50;99.90
12166;DHT22;6146;48.128;11.476;2023-02-28T17:35:12;2.50;99.90
12166;DHT22;6146;48.128;11.476;2023-02-28T17:37:38;2.50;99.90
12166;DHT22;6146;48.128;11.476;2023-02-28T17:40:04;2.60;99.90
12166;DHT22;6146;48.128;11.476;2023-02-28T17:42:30;2.60;99.90
12166;DHT22;6146;48.128;11.476;2023-02-28T17:44:55;2.60;99.90
12166;DHT22;6146;48.128;11.476;2023-02-28T17:47:21;2.60;99.90
12166;DHT22;6146;48.128;11.476;2023-02-28T17:49:46;2.60;99.90
12166;DHT22;6146;48.128;11.476;2023-02-28T17:52:12;2.60;99.90
12166;DHT22;6146;48.128;11.476;2023-02-28T17:54:37;2.60;99.90
12166;DHT22;6146;48.128;11.476;2023-02-28T17:57:03;2.60;99.90
12166;DHT22;6146;48.128;11.476;2023-02-28T17:59:29;2.60;99.90
12166;DHT22;6146;48.128;11.476;2023-02-28T18:02:01;2.60;99.90